Metar z połowy godziny Komunikat METAR ze strony awiacja.imgw.pl Metar G30 EPKK METAR EPKK 200230Z VRB01KT CAVOK 16/15 Q1017 =